Time;durP1;ratioP1;P1;durP2;ratioP2;P2;SDS_P1;SDS_P2;PMS_P1;PMS_P2;Temp;Humidity;BMP_temperature;BMP_pressure;BME280_temperature;BME280_humidity;BME280_pressure;Samples;Min_cycle;Max_cycle;Signal;HPM_P1;HPM_P2
2022/09/19 04:22:01;;;;;;;0.47;0.47;;;;;;;12.66;54.89;101119.75;5088609;27;1365599;-87
2022/09/19 04:24:29;;;;;;;0.20;0.20;;;;;;;12.20;56.95;101123.78;5074084;28;20059;-83
2022/09/19 04:26:54;;;;;;;0.17;0.17;;;;;;;11.91;57.83;101123.41;5121021;28;20471;-83
2022/09/19 04:29:20;;;;;;;0.47;0.47;;;;;;;11.50;58.29;101125.22;5118008;27;20847;-82
2022/09/19 04:31:46;;;;;;;0.20;0.20;;;;;;;11.39;59.08;101133.47;5116598;28;20039;-88
2022/09/19 04:34:14;;;;;;;0.20;0.20;;;;;;;11.31;59.58;101135.59;5127965;28;20051;-94
2022/09/19 04:36:40;;;;;;;0.50;0.50;;;;;;;11.33;60.00;101138.09;5122079;28;20019;-94
2022/09/19 04:39:07;;;;;;;0.45;0.45;;;;;;;11.38;60.03;101136.97;5102889;28;20039;-93
2022/09/19 04:41:35;;;;;;;0.30;0.30;;;;;;;11.31;60.50;101129.56;5131779;28;20023;-91
2022/09/19 04:44:02;;;;;;;0.20;0.20;;;;;;;11.26;61.31;101132.34;5086188;28;20396;-90
2022/09/19 04:46:28;;;;;;;0.20;0.20;;;;;;;11.12;61.07;101127.78;5099160;28;20034;-95
2022/09/19 04:48:57;;;;;;;0.10;0.10;;;;;;;11.08;62.10;101148.66;5094646;28;20411;-90
2022/09/19 04:51:23;;;;;;;0.40;0.30;;;;;;;10.97;62.11;101145.69;5096024;28;20023;-92
2022/09/19 04:53:49;;;;;;;0.30;0.30;;;;;;;11.18;61.10;101145.63;5120999;28;20038;-91
2022/09/19 04:56:17;;;;;;;0.45;0.43;;;;;;;11.11;61.24;101145.94;5108477;28;20464;-95
2022/09/19 04:58:43;;;;;;;0.20;0.20;;;;;;;11.08;60.79;101146.06;5075099;28;20035;-91
2022/09/19 05:01:10;;;;;;;0.30;0.30;;;;;;;11.03;61.37;101150.63;5093827;28;20032;-92
2022/09/19 05:03:36;;;;;;;0.20;0.20;;;;;;;10.74;61.56;101115.59;5100498;28;20042;-94
2022/09/19 05:06:02;;;;;;;0.20;0.20;;;;;;;10.88;62.20;101144.34;5096709;28;20031;-95
2022/09/19 05:08:29;;;;;;;0.25;0.25;;;;;;;10.95;62.59;101153.53;5112904;28;20476;-94
2022/09/19 05:10:59;;;;;;;0.10;0.10;;;;;;;11.30;64.15;101148.56;5094348;28;20421;-94
2022/09/19 05:13:28;;;;;;;0.30;0.30;;;;;;;11.31;62.68;101158.06;5099339;28;20153;-91
2022/09/19 05:15:54;;;;;;;0.30;0.30;;;;;;;11.57;63.33;101168.09;5089905;28;20032;-92
2022/09/19 05:18:21;;;;;;;0.40;0.40;;;;;;;11.52;60.49;101177.00;5084363;28;20029;-91
2022/09/19 05:20:48;;;;;;;0.93;0.70;;;;;;;11.42;60.42;101176.56;5078269;28;20078;-85
2022/09/19 05:23:13;;;;;;;0.25;0.25;;;;;;;11.81;62.37;101173.16;5105420;28;20468;-93
2022/09/19 05:25:39;;;;;;;0.55;0.47;;;;;;;11.65;59.22;101168.59;5093578;28;20031;-93
2022/09/19 05:28:06;;;;;;;0.20;0.20;;;;;;;11.46;59.24;101167.72;5088808;28;20054;-86
2022/09/19 05:30:36;;;;;;;0.40;0.40;;;;;;;11.61;60.14;101164.47;5075860;28;20084;-86
2022/09/19 05:33:02;;;;;;;0.20;0.20;;;;;;;11.67;58.83;101165.94;5087923;28;20081;-84
2022/09/19 05:35:28;;;;;;;0.63;0.40;;;;;;;12.00;59.41;101177.41;5109608;28;20032;-92
2022/09/19 05:37:54;;;;;;;1.65;0.75;;;;;;;12.06;58.11;101171.09;5116109;28;20075;-90
2022/09/19 05:40:21;;;;;;;0.65;0.65;;;;;;;12.02;57.45;101172.16;5095504;28;20024;-95
2022/09/19 05:42:59;;;;;;;0.57;0.57;;;;;;;12.17;59.43;101168.84;5084938;28;20123;-92
2022/09/19 05:45:25;;;;;;;0.55;0.52;;;;;;;12.17;58.40;101163.66;5071436;28;20036;-95
2022/09/19 05:47:50;;;;;;;0.20;0.20;;;;;;;12.22;59.29;101158.25;5099696;28;20032;-93
2022/09/19 05:50:16;;;;;;;0.35;0.35;;;;;;;12.17;59.15;101163.66;5095953;28;20039;-94
2022/09/19 05:55:26;;;;;;;0.25;0.25;;;;;;;12.32;60.88;101157.75;5084049;28;20105;-90
2022/09/19 05:57:53;;;;;;;0.10;0.10;;;;;;;12.49;59.86;101163.91;5085649;28;20024;-93
2022/09/19 06:00:19;;;;;;;0.10;0.10;;;;;;;12.34;59.30;101158.50;5067697;28;20063;-91
2022/09/19 06:02:52;;;;;;;0.10;0.10;;;;;;;12.53;60.77;101165.41;5071224;28;20055;-89
2022/09/19 06:05:18;;;;;;;0.10;0.10;;;;;;;12.40;59.83;101159.97;5067104;28;20035;-90
2022/09/19 06:07:43;;;;;;;0.40;0.40;;;;;;;12.35;60.74;101156.75;5118053;28;20473;-94
2022/09/19 06:10:09;;;;;;;0.45;0.40;;;;;;;12.51;61.09;101149.91;5083442;28;20089;-88
2022/09/19 06:12:34;;;;;;;0.45;0.30;;;;;;;12.53;61.20;101147.25;5071025;28;20724;-93
2022/09/19 06:15:00;;;;;;;0.30;0.30;;;;;;;12.85;62.28;101162.06;5071085;28;20032;-91
2022/09/19 06:17:26;;;;;;;0.20;0.20;;;;;;;13.01;62.13;101154.38;5078569;28;20039;-92
2022/09/19 06:19:52;;;;;;;0.30;0.30;;;;;;;13.20;62.29;101146.50;5074988;28;20035;-87
2022/09/19 06:22:17;;;;;;;0.13;0.13;;;;;;;13.10;61.96;101133.13;5105211;28;20020;-95
2022/09/19 06:24:43;;;;;;;0.32;0.32;;;;;;;13.17;61.92;101157.00;5076553;28;20020;-92
2022/09/19 06:27:09;;;;;;;0.20;0.20;;;;;;;13.03;61.76;101141.28;5082890;28;20035;-94
2022/09/19 06:29:34;;;;;;;0.68;0.68;;;;;;;13.27;61.32;101155.63;5071812;28;20071;-93
2022/09/19 06:32:02;;;;;;;0.57;0.57;;;;;;;13.30;61.35;101150.31;5101530;28;20106;-93
2022/09/19 06:34:27;;;;;;;0.55;0.55;;;;;;;13.44;60.75;101129.63;5103693;28;20028;-87
2022/09/19 06:36:53;;;;;;;0.52;0.52;;;;;;;13.47;58.75;101145.06;5089755;28;20078;-90
2022/09/19 06:39:18;;;;;;;0.10;0.10;;;;;;;13.61;59.58;101141.72;5099488;28;20027;-86
2022/09/19 06:41:47;;;;;;;0.10;0.10;;;;;;;13.68;59.50;101131.84;5095536;28;20484;-88
2022/09/19 06:44:13;;;;;;;0.40;0.30;;;;;;;13.95;59.64;101145.09;5092549;28;20116;-90
2022/09/19 06:46:39;;;;;;;0.20;0.20;;;;;;;14.00;58.75;101151.75;5074939;28;20039;-95
2022/09/19 06:49:07;;;;;;;0.30;0.30;;;;;;;14.09;58.38;101145.19;5073261;28;20031;-90
2022/09/19 06:51:33;;;;;;;0.30;0.30;;;;;;;13.93;58.24;101136.56;5075093;28;20035;-91
2022/09/19 06:53:59;;;;;;;0.20;0.20;;;;;;;13.89;58.41;101137.66;5095178;28;20123;-89
2022/09/19 06:56:25;;;;;;;0.63;0.45;;;;;;;13.89;58.43;101141.09;5066130;28;20049;-86
2022/09/19 06:58:50;;;;;;;0.20;0.20;;;;;;;13.99;58.82;101146.63;5090586;28;20076;-88
2022/09/19 07:01:16;;;;;;;0.50;0.40;;;;;;;14.09;58.59;101141.75;5089470;28;20455;-85
2022/09/19 07:03:42;;;;;;;0.30;0.30;;;;;;;14.07;58.17;101129.69;5073584;28;20057;-83
2022/09/19 07:06:07;;;;;;;0.40;0.40;;;;;;;13.89;58.67;101119.44;5072473;28;20024;-81
2022/09/19 07:08:33;;;;;;;0.20;0.20;;;;;;;14.03;58.61;101135.97;5101568;28;20062;-86
2022/09/19 07:10:58;;;;;;;0.20;0.20;;;;;;;14.06;58.43;101145.38;5093762;28;20031;-91
2022/09/19 07:13:24;;;;;;;0.30;0.20;;;;;;;14.27;57.91;101151.16;5089817;28;20024;-88
2022/09/19 07:15:49;;;;;;;0.22;0.22;;;;;;;14.28;56.75;101147.63;5075439;28;20115;-86
2022/09/19 07:18:15;;;;;;;0.20;0.20;;;;;;;14.32;57.69;101136.94;5091812;28;20042;-96
2022/09/19 07:20:41;;;;;;;0.30;0.30;;;;;;;14.56;57.65;101142.56;5108358;28;20055;-91
2022/09/19 07:23:11;;;;;;;0.40;0.40;;;;;;;14.72;56.56;101154.69;5080746;28;20024;-93
2022/09/19 07:25:37;;;;;;;0.30;0.30;;;;;;;14.60;55.73;101138.84;5081202;28;20031;-81
2022/09/19 07:28:08;;;;;;;0.25;0.25;;;;;;;14.79;54.49;101138.63;5083310;28;20110;-94
2022/09/19 07:30:34;;;;;;;0.30;0.20;;;;;;;15.16;55.11;101158.13;5057377;28;20070;-84
2022/09/19 07:33:00;;;;;;;0.20;0.20;;;;;;;15.33;54.42;101156.28;5085006;28;20062;-88
2022/09/19 07:35:30;;;;;;;0.90;0.50;;;;;;;15.27;52.61;101156.66;5075191;28;20118;-90
2022/09/19 07:37:56;;;;;;;0.20;0.20;;;;;;;15.36;52.94;101148.28;5107346;28;20123;-95
2022/09/19 07:40:22;;;;;;;0.20;0.20;;;;;;;15.56;53.59;101145.31;5091342;28;20110;-93
2022/09/19 07:42:47;;;;;;;0.38;0.30;;;;;;;15.89;52.53;101145.00;5075317;28;20067;-95
2022/09/19 07:45:13;;;;;;;0.20;0.20;;;;;;;15.94;52.04;101152.56;5107311;28;20070;-85
2022/09/19 07:47:43;;;;;;;0.50;0.50;;;;;;;16.21;51.21;101158.59;5089405;28;20078;-92
2022/09/19 07:50:09;;;;;;;0.30;0.30;;;;;;;16.05;51.09;101113.56;5080798;28;20027;-90
2022/09/19 07:52:35;;;;;;;0.20;0.20;;;;;;;16.34;49.60;101153.47;5059089;28;20111;-91
2022/09/19 07:55:01;;;;;;;0.20;0.20;;;;;;;16.29;49.62;101139.84;5079134;28;20051;-86
2022/09/19 07:57:26;;;;;;;0.17;0.17;;;;;;;16.49;49.11;101133.34;5106881;28;20066;-90
2022/09/19 07:59:52;;;;;;;0.20;0.20;;;;;;;16.60;48.32;101131.69;5098978;28;20027;-91
2022/09/19 08:02:18;;;;;;;0.20;0.20;;;;;;;16.62;48.02;101140.28;5090121;28;20024;-93
2022/09/19 08:04:43;;;;;;;0.40;0.30;;;;;;;16.83;48.57;101138.03;5074060;28;20508;-84
2022/09/19 08:07:09;;;;;;;0.40;0.30;;;;;;;16.89;47.92;101137.63;5070928;28;20028;-91
2022/09/19 08:09:34;;;;;;;0.30;0.30;;;;;;;16.71;48.13;101133.63;5059328;28;20031;-87
2022/09/19 08:12:01;;;;;;;0.60;0.60;;;;;;;16.99;47.68;101137.84;5108527;28;20028;-92
2022/09/19 08:14:27;;;;;;;0.30;0.30;;;;;;;17.03;48.16;101110.56;5073399;28;20411;-86
2022/09/19 08:16:53;;;;;;;0.20;0.20;;;;;;;17.28;48.20;101125.38;5097548;28;20050;-91
2022/09/19 08:19:18;;;;;;;0.43;0.43;;;;;;;17.47;48.08;101124.94;5086237;28;21199;-89
2022/09/19 08:21:44;;;;;;;0.55;0.40;;;;;;;17.47;47.54;101127.56;5076013;28;20059;-86
2022/09/19 08:24:09;;;;;;;0.20;0.20;;;;;;;17.55;47.61;101106.94;5098344;28;20488;-92
2022/09/19 08:26:35;;;;;;;0.30;0.30;;;;;;;17.72;47.52;101106.63;5073005;28;20035;-90
2022/09/19 08:29:00;;;;;;;0.30;0.30;;;;;;;17.76;46.61;101078.44;5082301;28;20032;-87
2022/09/19 08:31:26;;;;;;;0.43;0.38;;;;;;;17.91;45.33;101108.75;5094299;28;20028;-86
2022/09/19 08:33:51;;;;;;;0.20;0.20;;;;;;;18.01;45.65;101088.81;5100123;28;20036;-93
2022/09/19 08:36:17;;;;;;;0.85;0.55;;;;;;;18.08;43.82;101072.66;5100255;28;20469;-88
2022/09/19 08:38:43;;;;;;;0.40;0.40;;;;;;;18.28;42.73;101082.50;5082267;28;20063;-87
2022/09/19 08:41:14;;;;;;;0.20;0.20;;;;;;;18.16;42.03;101068.53;5088765;28;20031;-83
2022/09/19 08:43:59;;;;;;;0.40;0.40;;;;;;;18.26;43.02;101073.91;5105508;28;20034;-81
2022/09/19 08:47:07;;;;;;;0.50;0.50;;;;;;;18.55;43.64;101082.22;5108664;28;20051;-94
2022/09/19 08:49:50;;;;;;;0.30;0.30;;;;;;;18.66;43.10;101074.44;5069545;28;20029;-94
2022/09/19 08:52:37;;;;;;;0.90;0.52;;;;;;;18.86;42.81;101075.53;5072351;28;20040;-82
2022/09/19 08:55:03;;;;;;;0.50;0.40;;;;;;;18.90;43.57;101066.50;5075075;28;20405;-86
2022/09/19 08:57:38;;;;;;;0.30;0.30;;;;;;;19.07;41.76;101066.00;5071430;28;20035;-90
2022/09/19 09:00:07;;;;;;;1.67;0.93;;;;;;;19.08;40.46;101057.22;5072453;28;20081;-90
2022/09/19 09:02:50;;;;;;;0.25;0.25;;;;;;;19.17;41.38;101069.63;5076134;28;20059;-83
2022/09/19 09:05:36;;;;;;;0.30;0.30;;;;;;;19.43;40.74;101064.09;5103555;28;20032;-95
2022/09/19 09:08:09;;;;;;;0.32;0.32;;;;;;;19.54;39.29;101058.81;5095607;28;20039;-91
2022/09/19 09:10:47;;;;;;;;;;;;;;;19.68;39.40;101058.59;5103593;28;20033;-85
2022/09/19 09:13:37;;;;;;;0.30;0.30;;;;;;;19.83;39.78;101039.94;5111698;28;19916;-93
2022/09/19 09:16:15;;;;;;;0.60;0.47;;;;;;;20.18;40.32;101053.66;5087289;28;20103;-87
2022/09/19 09:19:02;;;;;;;0.55;0.20;;;;;;;20.31;37.88;101045.56;5101453;28;20020;-87
2022/09/19 09:21:37;;;;;;;0.20;0.20;;;;;;;20.71;38.78;101037.00;5105861;28;20107;-91
2022/09/19 09:24:10;;;;;;;0.20;0.20;;;;;;;20.90;34.86;101016.06;5077834;28;20066;-88
2022/09/19 09:26:40;;;;;;;0.20;0.20;;;;;;;21.14;34.73;101028.91;5070170;28;20119;-88
2022/09/19 09:29:11;;;;;;;0.20;0.20;;;;;;;21.19;31.20;101022.25;5067221;28;20103;-88
2022/09/19 09:31:46;;;;;;;0.20;0.20;;;;;;;21.18;34.78;100993.44;5099214;28;20021;-86
2022/09/19 09:34:27;;;;;;;0.20;0.20;;;;;;;21.54;31.91;101005.19;5074121;28;20523;-90
2022/09/19 09:36:55;;;;;;;0.20;0.20;;;;;;;21.76;33.01;100998.84;5072649;28;20028;-89
2022/09/19 09:39:25;;;;;;;0.30;0.30;;;;;;;21.89;33.17;100999.38;5095904;28;20096;-90
2022/09/19 09:41:56;;;;;;;0.20;0.20;;;;;;;21.76;30.56;100998.84;5059061;28;20097;-87
2022/09/19 09:44:44;;;;;;;0.40;0.40;;;;;;;21.67;31.67;100984.69;5074724;28;20048;-94
2022/09/19 09:47:21;;;;;;;0.30;0.30;;;;;;;21.64;32.02;100989.41;5100748;28;20077;-85
2022/09/19 09:49:47;;;;;;;0.30;0.30;;;;;;;21.65;31.49;100985.81;5103725;28;20118;-87
2022/09/19 09:52:47;;;;;;;0.20;0.20;;;;;;;21.76;30.05;100978.59;5086261;28;20103;-83
2022/09/19 09:58:35;;;;;;;0.35;0.30;;;;;;;21.90;30.36;100971.25;5101670;28;20501;-84
2022/09/19 10:04:36;;;;;;;0.20;0.20;;;;;;;21.97;26.99;100977.63;5103503;28;20123;-95
2022/09/19 10:07:15;;;;;;;0.28;0.28;;;;;;;22.20;26.81;100976.34;5087311;28;20054;-83
2022/09/19 10:10:01;;;;;;;0.32;0.30;;;;;;;22.43;26.40;100966.34;5096391;28;20020;-83
2022/09/19 10:12:38;;;;;;;0.30;0.30;;;;;;;22.31;26.43;100980.63;5093616;28;20536;-86
2022/09/19 10:15:08;;;;;;;0.50;0.43;;;;;;;22.48;27.71;100966.72;5092830;28;20050;-85
2022/09/19 10:17:35;;;;;;;0.75;0.50;;;;;;;22.68;26.96;100961.38;5070728;28;20114;-81
2022/09/19 10:20:04;;;;;;;0.40;0.40;;;;;;;22.73;25.85;100935.41;5073670;28;20085;-88
2022/09/19 10:22:29;;;;;;;1.30;1.00;;;;;;;22.70;27.04;100922.50;5081907;28;20411;-80
2022/09/19 10:24:58;;;;;;;1.27;0.80;;;;;;;23.13;27.09;100948.28;5073328;28;20028;-83
2022/09/19 10:27:33;;;;;;;0.77;0.60;;;;;;;23.38;26.40;100947.53;5095465;28;20038;-85
2022/09/19 10:30:28;;;;;;;0.40;0.40;;;;;;;23.56;25.51;100950.19;5089883;28;20031;-86
2022/09/19 10:32:54;;;;;;;0.43;0.40;;;;;;;23.63;25.10;100946.00;5088716;28;20183;-91
2022/09/19 10:35:34;;;;;;;0.50;0.38;;;;;;;24.01;30.51;100951.91;5076816;28;20134;-88
2022/09/19 10:38:00;;;;;;;0.30;0.30;;;;;;;24.17;25.34;100949.38;5086406;28;20024;-83
2022/09/19 10:40:30;;;;;;;0.20;0.20;;;;;;;24.26;24.25;100937.03;5080659;28;20458;-83
2022/09/19 10:42:55;;;;;;;0.70;0.47;;;;;;;24.30;27.50;100939.22;5084977;28;20058;-84
2022/09/19 10:45:31;;;;;;;0.43;0.43;;;;;;;24.54;25.28;100935.06;5074236;28;20084;-84
2022/09/19 10:48:05;;;;;;;0.20;0.20;;;;;;;24.70;24.95;100926.38;5097188;28;20024;-84
2022/09/19 10:50:31;;;;;;;0.20;0.20;;;;;;;24.59;24.77;100919.56;5098139;28;20024;-83
2022/09/19 10:53:04;;;;;;;0.28;0.28;;;;;;;24.76;23.83;100923.91;5085195;28;20042;-83
2022/09/19 10:55:32;;;;;;;3.10;2.25;;;;;;;24.86;24.54;100919.31;5088990;28;20390;-83
2022/09/19 10:58:03;;;;;;;0.30;0.28;;;;;;;24.92;25.00;100912.56;5076396;28;20067;-83
2022/09/19 11:00:59;;;;;;;0.20;0.20;;;;;;;25.16;24.14;100914.47;5072742;28;20110;-83
2022/09/19 11:03:35;;;;;;;0.10;0.10;;;;;;;25.06;23.79;100903.19;5052295;28;20040;-87
2022/09/19 11:06:10;;;;;;;3.15;2.08;;;;;;;24.93;24.97;100869.22;5074185;28;20489;-85
2022/09/19 11:08:48;;;;;;;1.25;0.88;;;;;;;25.24;22.42;100893.31;5106409;28;20028;-92
2022/09/19 11:11:25;;;;;;;0.28;0.20;;;;;;;25.41;24.08;100887.03;5086007;28;20028;-83
2022/09/19 11:14:18;;;;;;;1.70;0.30;;;;;;;25.51;22.79;100889.53;5072479;28;20028;-81
2022/09/19 11:16:57;;;;;;;0.28;0.28;;;;;;;25.57;24.34;100888.88;5083933;28;20058;-86
2022/09/19 11:19:39;;;;;;;0.22;0.22;;;;;;;25.68;22.22;100893.00;5089185;28;20031;-82
2022/09/19 11:22:17;;;;;;;0.20;0.20;;;;;;;25.60;21.24;100893.00;5086828;28;20505;-92
2022/09/19 11:24:54;;;;;;;0.40;0.40;;;;;;;25.40;23.70;100872.13;5087937;28;20036;-88
2022/09/19 11:27:29;;;;;;;0.73;0.40;;;;;;;25.49;22.43;100877.44;5093958;28;20051;-91
2022/09/19 11:30:19;;;;;;;0.20;0.20;;;;;;;25.50;22.38;100869.31;5073149;28;20036;-87
2022/09/19 11:32:57;;;;;;;0.20;0.20;;;;;;;25.41;22.76;100849.97;5100897;28;20028;-91
2022/09/19 11:35:44;;;;;;;0.30;0.30;;;;;;;25.38;22.93;100860.88;5094888;28;20027;-83
2022/09/19 11:38:56;;;;;;;0.20;0.20;;;;;;;25.23;25.21;100867.00;5075890;28;20040;-78
2022/09/19 11:41:58;;;;;;;0.15;0.15;;;;;;;25.00;23.27;100866.78;5048312;28;20123;-82
2022/09/19 11:44:43;;;;;;;;;;;;;;;24.92;22.52;100874.69;5107288;28;20023;-94
2022/09/19 11:47:31;;;;;;;0.20;0.20;;;;;;;24.67;22.91;100874.59;5093408;28;19919;-82
2022/09/19 11:50:04;;;;;;;0.38;0.38;;;;;;;24.66;24.02;100854.44;5088947;28;20028;-82
2022/09/19 11:53:01;;;;;;;0.30;0.30;;;;;;;24.93;23.42;100871.06;5090002;28;20028;-81
2022/09/19 11:56:13;;;;;;;0.20;0.20;;;;;;;25.02;22.50;100870.13;5020202;28;20042;-86
2022/09/19 11:58:54;;;;;;;0.28;0.28;;;;;;;24.97;24.54;100825.56;5070558;28;20027;-88
2022/09/19 12:01:36;;;;;;;0.20;0.20;;;;;;;25.35;22.68;100857.72;5092459;28;20046;-88
2022/09/19 12:04:20;;;;;;;;;;;;;;;25.40;21.40;100848.31;5095425;28;20027;-93
2022/09/19 12:07:25;;;;;;;0.20;0.20;;;;;;;25.47;22.05;100851.13;5100641;28;19912;-83
2022/09/19 12:10:04;;;;;;;2.63;2.22;;;;;;;25.42;21.93;100837.53;5089943;28;20493;-89
2022/09/19 12:12:30;;;;;;;0.77;0.65;;;;;;;25.44;22.11;100825.78;5102018;28;20035;-89
2022/09/19 12:15:00;;;;;;;0.50;0.40;;;;;;;25.48;22.59;100809.56;5095556;28;20051;-86
2022/09/19 12:17:33;;;;;;;0.82;0.68;;;;;;;25.57;24.81;100833.25;5095058;28;20079;-91
2022/09/19 12:20:30;;;;;;;0.35;0.35;;;;;;;25.67;22.30;100825.09;5091922;28;20020;-86
2022/09/19 12:24:52;;;;;;;0.20;0.20;;;;;;;25.55;22.90;100818.47;5088207;28;20028;-87
2022/09/19 12:25:47;;;;;;;0.30;0.30;;;;;;;25.41;22.55;100804.94;5095590;28;20028;-84
2022/09/19 12:28:15;;;;;;;0.47;0.35;;;;;;;25.39;24.36;100814.88;5105555;28;20425;-86
2022/09/19 12:30:43;;;;;;;0.55;0.40;;;;;;;25.38;22.42;100812.41;5057169;28;20028;-85
2022/09/19 12:33:32;;;;;;;1.60;1.38;;;;;;;25.33;22.85;100815.53;5072342;28;20047;-88
2022/09/19 12:36:06;;;;;;;0.73;0.50;;;;;;;25.13;22.66;100814.19;5089536;28;20046;-86
2022/09/19 12:39:03;;;;;;;0.45;0.40;;;;;;;24.88;22.13;100808.88;5063390;28;20519;-88
2022/09/19 12:41:43;;;;;;;0.73;0.35;;;;;;;24.86;22.32;100816.13;5088791;28;20066;-88
2022/09/19 12:44:15;;;;;;;0.35;0.30;;;;;;;24.86;21.94;100813.47;5094110;28;20086;-91
2022/09/19 12:46:41;;;;;;;;;;;;;;;24.86;22.67;100810.81;5066572;28;20414;-86
2022/09/19 12:49:28;;;;;;;0.20;0.20;;;;;;;24.46;21.79;100773.72;5104167;28;19919;-83
2022/09/19 12:52:13;;;;;;;0.25;0.25;;;;;;;24.45;20.80;100809.91;5092392;28;20016;-84
2022/09/19 12:54:46;;;;;;;1.02;0.95;;;;;;;24.41;21.87;100803.31;5092868;28;20416;-83
2022/09/19 12:57:50;;;;;;;0.73;0.70;;;;;;;24.36;22.21;100794.19;5092724;28;20035;-81
2022/09/19 13:00:18;;;;;;;0.45;0.45;;;;;;;24.29;22.07;100794.81;5089449;28;20081;-91
2022/09/19 13:03:17;;;;;;;0.20;0.20;;;;;;;24.20;21.43;100801.03;5092540;28;20542;-83
2022/09/19 13:05:47;;;;;;;0.30;0.30;;;;;;;24.18;22.96;100804.81;5073946;28;20071;-84
2022/09/19 13:08:19;;;;;;;0.20;0.20;;;;;;;24.04;22.37;100785.09;5091656;28;20028;-81
2022/09/19 13:11:05;;;;;;;0.40;0.20;;;;;;;24.08;21.97;100790.91;5092795;28;20046;-96
2022/09/19 13:13:51;;;;;;;0.40;0.20;;;;;;;24.07;22.13;100790.06;5079158;28;20497;-79
2022/09/19 13:16:17;;;;;;;0.20;0.20;;;;;;;23.98;21.57;100777.81;5085421;28;20118;-83
2022/09/19 13:24:25;;;;;;;0.30;0.30;;;;;;;24.03;23.37;100786.94;5112376;28;20172;-81
2022/09/19 13:26:54;;;;;;;0.30;0.30;;;;;;;23.89;23.92;100760.25;5095636;28;20035;-86
2022/09/19 13:29:29;;;;;;;0.30;0.30;;;;;;;24.06;23.76;100787.59;5085314;28;20931;-86
2022/09/19 13:32:04;;;;;;;0.22;0.22;;;;;;;24.07;23.54;100784.78;5092727;28;20056;-81
2022/09/19 13:34:32;;;;;;;0.40;0.38;;;;;;;24.24;23.53;100809.47;5092017;28;20024;-79
2022/09/19 13:37:05;;;;;;;0.30;0.30;;;;;;;24.26;23.27;100805.69;5093014;28;20577;-83
2022/09/19 13:39:55;;;;;;;0.75;0.30;;;;;;;24.23;22.83;100816.56;5091783;28;20027;-86
2022/09/19 13:42:28;;;;;;;0.35;0.35;;;;;;;24.17;23.10;100834.88;5092716;28;20028;-81
2022/09/19 13:45:01;;;;;;;;;;;;;;;24.05;24.01;100834.34;5092045;28;20020;-82
2022/09/19 13:47:30;;;;;;;1.17;0.45;;;;;;;23.67;25.29;100843.50;5091531;28;20335;-81
2022/09/19 13:50:04;;;;;;;0.68;0.68;;;;;;;23.44;27.65;100851.91;5075417;28;20489;-82
2022/09/19 13:52:35;;;;;;;0.95;0.50;;;;;;;22.93;28.82;100851.75;5094864;28;20027;-83
2022/09/19 13:55:12;;;;;;;0.35;0.32;;;;;;;22.69;29.76;100854.91;5105869;28;20032;-81
2022/09/19 13:57:40;;;;;;;0.35;0.35;;;;;;;22.44;29.47;100859.09;5106981;28;20020;-81
2022/09/19 14:00:29;;;;;;;0.65;0.50;;;;;;;22.33;30.03;100866.22;5093691;28;20059;-82
2022/09/19 14:03:05;;;;;;;0.57;0.43;;;;;;;22.24;30.55;100866.25;5111912;28;20030;-83
2022/09/19 14:05:34;;;;;;;1.10;0.50;;;;;;;22.02;32.62;100883.19;5090723;28;20137;-87
2022/09/19 14:07:59;;;;;;;0.30;0.30;;;;;;;21.67;34.61;100889.09;5074025;28;20039;-85
2022/09/19 14:10:27;;;;;;;0.40;0.40;;;;;;;21.59;34.66;100896.84;5074350;28;20028;-80
2022/09/19 14:12:55;;;;;;;0.85;0.40;;;;;;;21.31;35.54;100911.66;5075172;28;20032;-81
2022/09/19 14:15:42;;;;;;;0.40;0.40;;;;;;;20.87;36.44;100933.00;5074146;28;20026;-81
2022/09/19 14:18:08;;;;;;;0.80;0.68;;;;;;;20.61;35.74;100952.84;5092189;28;20039;-82
2022/09/19 14:20:50;;;;;;;0.55;0.47;;;;;;;20.31;35.89;100959.69;5092549;28;20048;-80
2022/09/19 14:23:16;;;;;;;0.40;0.40;;;;;;;19.98;36.46;100946.78;5077041;28;20118;-82
2022/09/19 14:26:01;;;;;;;0.60;0.55;;;;;;;19.79;36.11;100959.78;5086403;28;20561;-81
2022/09/19 14:29:07;;;;;;;0.65;0.57;;;;;;;19.74;35.96;100968.84;5057048;28;20401;-80
2022/09/19 14:31:37;;;;;;;1.08;1.05;;;;;;;19.49;36.53;100974.41;5092042;28;20032;-82
